sensor_id;sensor_type;location;lat;lon;timestamp;P1;durP1;ratioP1;P2;durP2;ratioP2
22184;SDS011;11258;52.516;13.318;2024-03-02T00:02:14;35.43;;;20.50;;
22184;SDS011;11258;52.516;13.318;2024-03-02T00:04:40;38.83;;;19.90;;
22184;SDS011;11258;52.516;13.318;2024-03-02T00:07:06;35.93;;;19.13;;
22184;SDS011;11258;52.516;13.318;2024-03-02T00:09:32;37.07;;;19.80;;
22184;SDS011;11258;52.516;13.318;2024-03-02T00:12:01;36.87;;;20.07;;
22184;SDS011;11258;52.516;13.318;2024-03-02T00:14:31;43.07;;;21.40;;
22184;SDS011;11258;52.516;13.318;2024-03-02T00:16:57;38.27;;;21.17;;
22184;SDS011;11258;52.516;13.318;2024-03-02T00:19:23;42.73;;;22.07;;
22184;SDS011;11258;52.516;13.318;2024-03-02T00:21:49;41.67;;;20.70;;
22184;SDS011;11258;52.516;13.318;2024-03-02T00:24:31;44.53;;;21.40;;
22184;SDS011;11258;52.516;13.318;2024-03-02T00:26:58;42.67;;;20.40;;
22184;SDS011;11258;52.516;13.318;2024-03-02T00:29:24;39.53;;;19.93;;
22184;SDS011;11258;52.516;13.318;2024-03-02T00:31:50;44.07;;;21.37;;
22184;SDS011;11258;52.516;13.318;2024-03-02T00:34:17;42.57;;;19.60;;
22184;SDS011;11258;52.516;13.318;2024-03-02T00:36:43;45.63;;;20.60;;
22184;SDS011;11258;52.516;13.318;2024-03-02T00:39:10;37.77;;;20.60;;
22184;SDS011;11258;52.516;13.318;2024-03-02T00:41:38;41.40;;;21.03;;
22184;SDS011;11258;52.516;13.318;2024-03-02T00:44:07;44.80;;;21.03;;
22184;SDS011;11258;52.516;13.318;2024-03-02T00:46:36;40.00;;;21.10;;
22184;SDS011;11258;52.516;13.318;2024-03-02T00:49:03;44.70;;;21.50;;
22184;SDS011;11258;52.516;13.318;2024-03-02T00:51:30;42.50;;;21.30;;
22184;SDS011;11258;52.516;13.318;2024-03-02T00:53:58;40.83;;;21.57;;
22184;SDS011;11258;52.516;13.318;2024-03-02T00:56:24;36.33;;;20.77;;
22184;SDS011;11258;52.516;13.318;2024-03-02T00:58:51;37.20;;;19.90;;
22184;SDS011;11258;52.516;13.318;2024-03-02T01:01:17;40.57;;;21.53;;
22184;SDS011;11258;52.516;13.318;2024-03-02T01:03:44;38.47;;;20.30;;
22184;SDS011;11258;52.516;13.318;2024-03-02T01:06:10;40.33;;;20.97;;
22184;SDS011;11258;52.516;13.318;2024-03-02T01:08:37;39.13;;;21.23;;
22184;SDS011;11258;52.516;13.318;2024-03-02T01:11:03;38.50;;;19.07;;
22184;SDS011;11258;52.516;13.318;2024-03-02T01:13:30;37.07;;;21.20;;
22184;SDS011;11258;52.516;13.318;2024-03-02T01:15:56;36.17;;;20.80;;
22184;SDS011;11258;52.516;13.318;2024-03-02T01:18:22;41.77;;;21.17;;
22184;SDS011;11258;52.516;13.318;2024-03-02T01:20:48;46.13;;;21.37;;
22184;SDS011;11258;52.516;13.318;2024-03-02T01:23:20;41.67;;;21.23;;
22184;SDS011;11258;52.516;13.318;2024-03-02T01:25:46;42.23;;;22.10;;
22184;SDS011;11258;52.516;13.318;2024-03-02T01:28:13;38.40;;;20.93;;
22184;SDS011;11258;52.516;13.318;2024-03-02T01:30:39;47.10;;;22.17;;
22184;SDS011;11258;52.516;13.318;2024-03-02T01:33:05;44.57;;;21.87;;
22184;SDS011;11258;52.516;13.318;2024-03-02T01:35:31;49.53;;;23.70;;
22184;SDS011;11258;52.516;13.318;2024-03-02T01:37:57;44.10;;;22.63;;
22184;SDS011;11258;52.516;13.318;2024-03-02T01:40:24;43.10;;;20.97;;
22184;SDS011;11258;52.516;13.318;2024-03-02T01:42:53;42.17;;;22.17;;
22184;SDS011;11258;52.516;13.318;2024-03-02T01:45:20;50.30;;;23.23;;
22184;SDS011;11258;52.516;13.318;2024-03-02T01:47:47;44.27;;;22.53;;
22184;SDS011;11258;52.516;13.318;2024-03-02T01:50:13;46.27;;;24.07;;
22184;SDS011;11258;52.516;13.318;2024-03-02T01:52:39;47.77;;;24.77;;
22184;SDS011;11258;52.516;13.318;2024-03-02T01:55:05;45.43;;;23.53;;
22184;SDS011;11258;52.516;13.318;2024-03-02T01:57:32;45.93;;;23.27;;
22184;SDS011;11258;52.516;13.318;2024-03-02T01:59:58;42.70;;;23.13;;
22184;SDS011;11258;52.516;13.318;2024-03-02T02:02:25;44.17;;;25.17;;
22184;SDS011;11258;52.516;13.318;2024-03-02T02:04:51;47.33;;;25.17;;
22184;SDS011;11258;52.516;13.318;2024-03-02T02:07:17;47.17;;;24.03;;
22184;SDS011;11258;52.516;13.318;2024-03-02T02:09:44;49.60;;;24.47;;
22184;SDS011;11258;52.516;13.318;2024-03-02T02:12:10;43.63;;;24.03;;
22184;SDS011;11258;52.516;13.318;2024-03-02T02:14:36;45.77;;;24.17;;
22184;SDS011;11258;52.516;13.318;2024-03-02T02:17:04;45.67;;;23.60;;
22184;SDS011;11258;52.516;13.318;2024-03-02T02:19:30;45.60;;;24.63;;
22184;SDS011;11258;52.516;13.318;2024-03-02T02:21:56;46.43;;;24.27;;
22184;SDS011;11258;52.516;13.318;2024-03-02T02:24:22;42.23;;;25.60;;
22184;SDS011;11258;52.516;13.318;2024-03-02T02:26:48;52.93;;;26.43;;
22184;SDS011;11258;52.516;13.318;2024-03-02T02:29:14;49.40;;;25.57;;
22184;SDS011;11258;52.516;13.318;2024-03-02T02:31:41;43.80;;;24.13;;
22184;SDS011;11258;52.516;13.318;2024-03-02T02:34:07;56.70;;;27.77;;
22184;SDS011;11258;52.516;13.318;2024-03-02T02:36:34;47.53;;;25.20;;
22184;SDS011;11258;52.516;13.318;2024-03-02T02:39:02;47.50;;;25.43;;
22184;SDS011;11258;52.516;13.318;2024-03-02T02:41:29;54.03;;;24.23;;
22184;SDS011;11258;52.516;13.318;2024-03-02T02:43:55;50.43;;;24.93;;
22184;SDS011;11258;52.516;13.318;2024-03-02T02:46:21;47.57;;;24.90;;
22184;SDS011;11258;52.516;13.318;2024-03-02T02:48:47;53.23;;;27.07;;
22184;SDS011;11258;52.516;13.318;2024-03-02T02:51:13;50.43;;;26.07;;
22184;SDS011;11258;52.516;13.318;2024-03-02T02:53:39;47.43;;;26.03;;
22184;SDS011;11258;52.516;13.318;2024-03-02T02:56:08;47.83;;;25.67;;
22184;SDS011;11258;52.516;13.318;2024-03-02T02:58:34;44.60;;;25.43;;
22184;SDS011;11258;52.516;13.318;2024-03-02T03:01:00;51.77;;;27.13;;
22184;SDS011;11258;52.516;13.318;2024-03-02T03:03:26;47.60;;;24.97;;
22184;SDS011;11258;52.516;13.318;2024-03-02T03:05:52;53.50;;;26.43;;
22184;SDS011;11258;52.516;13.318;2024-03-02T03:08:18;52.93;;;26.17;;
22184;SDS011;11258;52.516;13.318;2024-03-02T03:10:44;48.70;;;27.20;;
22184;SDS011;11258;52.516;13.318;2024-03-02T03:13:10;44.07;;;24.00;;
22184;SDS011;11258;52.516;13.318;2024-03-02T03:15:36;49.00;;;25.47;;
22184;SDS011;11258;52.516;13.318;2024-03-02T03:18:03;49.93;;;25.60;;
22184;SDS011;11258;52.516;13.318;2024-03-02T03:20:29;49.43;;;26.17;;
22184;SDS011;11258;52.516;13.318;2024-03-02T03:22:56;48.00;;;25.43;;
22184;SDS011;11258;52.516;13.318;2024-03-02T03:25:22;46.43;;;24.40;;
22184;SDS011;11258;52.516;13.318;2024-03-02T03:27:48;47.43;;;25.80;;
22184;SDS011;11258;52.516;13.318;2024-03-02T03:30:14;49.73;;;25.03;;
22184;SDS011;11258;52.516;13.318;2024-03-02T03:32:40;52.83;;;25.07;;
22184;SDS011;11258;52.516;13.318;2024-03-02T03:35:06;52.33;;;26.07;;
22184;SDS011;11258;52.516;13.318;2024-03-02T03:37:32;49.30;;;24.83;;
22184;SDS011;11258;52.516;13.318;2024-03-02T03:39:59;46.47;;;24.73;;
22184;SDS011;11258;52.516;13.318;2024-03-02T03:42:26;45.20;;;24.27;;
22184;SDS011;11258;52.516;13.318;2024-03-02T03:44:52;45.73;;;24.50;;
22184;SDS011;11258;52.516;13.318;2024-03-02T03:47:18;42.93;;;23.77;;
22184;SDS011;11258;52.516;13.318;2024-03-02T03:49:45;48.60;;;22.73;;
22184;SDS011;11258;52.516;13.318;2024-03-02T03:52:11;42.07;;;22.67;;
22184;SDS011;11258;52.516;13.318;2024-03-02T03:54:37;46.60;;;24.67;;
22184;SDS011;11258;52.516;13.318;2024-03-02T03:57:04;41.63;;;23.20;;
22184;SDS011;11258;52.516;13.318;2024-03-02T03:59:30;43.47;;;23.90;;
22184;SDS011;11258;52.516;13.318;2024-03-02T04:01:56;51.13;;;25.57;;
22184;SDS011;11258;52.516;13.318;2024-03-02T04:04:22;40.43;;;22.57;;
22184;SDS011;11258;52.516;13.318;2024-03-02T04:06:48;38.83;;;21.97;;
22184;SDS011;11258;52.516;13.318;2024-03-02T04:09:14;48.63;;;22.80;;
22184;SDS011;11258;52.516;13.318;2024-03-02T04:11:40;45.63;;;23.70;;
22184;SDS011;11258;52.516;13.318;2024-03-02T04:14:06;45.90;;;23.17;;
22184;SDS011;11258;52.516;13.318;2024-03-02T04:16:32;39.10;;;22.20;;
22184;SDS011;11258;52.516;13.318;2024-03-02T04:18:58;47.00;;;22.83;;
22184;SDS011;11258;52.516;13.318;2024-03-02T04:21:24;41.80;;;21.80;;
22184;SDS011;11258;52.516;13.318;2024-03-02T04:23:50;40.03;;;21.20;;
22184;SDS011;11258;52.516;13.318;2024-03-02T04:26:16;41.03;;;22.07;;
22184;SDS011;11258;52.516;13.318;2024-03-02T04:28:47;42.90;;;24.10;;
22184;SDS011;11258;52.516;13.318;2024-03-02T04:31:13;43.90;;;22.53;;
22184;SDS011;11258;52.516;13.318;2024-03-02T04:33:40;37.30;;;21.10;;
22184;SDS011;11258;52.516;13.318;2024-03-02T04:36:06;41.13;;;21.03;;
22184;SDS011;11258;52.516;13.318;2024-03-02T04:38:34;43.57;;;22.07;;
22184;SDS011;11258;52.516;13.318;2024-03-02T04:41:00;39.27;;;21.60;;
22184;SDS011;11258;52.516;13.318;2024-03-02T04:43:26;36.77;;;20.43;;
22184;SDS011;11258;52.516;13.318;2024-03-02T04:45:52;47.37;;;22.47;;
22184;SDS011;11258;52.516;13.318;2024-03-02T04:48:18;41.80;;;21.03;;
22184;SDS011;11258;52.516;13.318;2024-03-02T04:50:44;42.90;;;21.50;;
22184;SDS011;11258;52.516;13.318;2024-03-02T04:53:10;36.43;;;20.90;;
22184;SDS011;11258;52.516;13.318;2024-03-02T04:55:36;38.10;;;20.87;;
22184;SDS011;11258;52.516;13.318;2024-03-02T04:58:17;41.13;;;21.80;;
22184;SDS011;11258;52.516;13.318;2024-03-02T05:00:43;38.23;;;20.17;;
22184;SDS011;11258;52.516;13.318;2024-03-02T05:03:11;42.70;;;22.27;;
22184;SDS011;11258;52.516;13.318;2024-03-02T05:05:37;42.03;;;21.63;;
22184;SDS011;11258;52.516;13.318;2024-03-02T05:08:03;38.93;;;20.50;;
22184;SDS011;11258;52.516;13.318;2024-03-02T05:10:29;37.60;;;20.80;;
22184;SDS011;11258;52.516;13.318;2024-03-02T05:12:55;41.37;;;20.80;;
22184;SDS011;11258;52.516;13.318;2024-03-02T05:15:22;35.87;;;20.63;;
22184;SDS011;11258;52.516;13.318;2024-03-02T05:17:48;39.40;;;21.50;;
22184;SDS011;11258;52.516;13.318;2024-03-02T05:20:14;38.53;;;20.47;;
22184;SDS011;11258;52.516;13.318;2024-03-02T05:22:40;40.47;;;21.43;;
22184;SDS011;11258;52.516;13.318;2024-03-02T05:25:06;45.03;;;23.03;;
22184;SDS011;11258;52.516;13.318;2024-03-02T05:27:32;38.97;;;21.40;;
22184;SDS011;11258;52.516;13.318;2024-03-02T05:29:59;47.23;;;22.37;;
22184;SDS011;11258;52.516;13.318;2024-03-02T05:32:25;39.47;;;22.67;;
22184;SDS011;11258;52.516;13.318;2024-03-02T05:34:51;43.80;;;22.63;;
22184;SDS011;11258;52.516;13.318;2024-03-02T05:37:17;45.50;;;24.00;;
22184;SDS011;11258;52.516;13.318;2024-03-02T05:39:43;47.00;;;22.23;;
22184;SDS011;11258;52.516;13.318;2024-03-02T05:42:09;46.37;;;23.50;;
22184;SDS011;11258;52.516;13.318;2024-03-02T05:44:36;43.60;;;24.07;;
22184;SDS011;11258;52.516;13.318;2024-03-02T05:47:02;44.90;;;23.07;;
22184;SDS011;11258;52.516;13.318;2024-03-02T05:49:29;46.90;;;23.60;;
22184;SDS011;11258;52.516;13.318;2024-03-02T05:51:55;46.57;;;24.33;;
22184;SDS011;11258;52.516;13.318;2024-03-02T05:54:21;49.93;;;25.27;;
22184;SDS011;11258;52.516;13.318;2024-03-02T05:56:47;52.13;;;25.43;;
22184;SDS011;11258;52.516;13.318;2024-03-02T05:59:13;44.90;;;24.47;;
22184;SDS011;11258;52.516;13.318;2024-03-02T06:01:39;46.70;;;24.37;;
22184;SDS011;11258;52.516;13.318;2024-03-02T06:04:06;49.43;;;24.20;;
22184;SDS011;11258;52.516;13.318;2024-03-02T06:06:33;44.13;;;24.37;;
22184;SDS011;11258;52.516;13.318;2024-03-02T06:08:59;50.23;;;25.30;;
22184;SDS011;11258;52.516;13.318;2024-03-02T06:11:25;49.63;;;23.80;;
22184;SDS011;11258;52.516;13.318;2024-03-02T06:13:51;49.60;;;24.13;;
22184;SDS011;11258;52.516;13.318;2024-03-02T06:16:17;44.83;;;24.07;;
22184;SDS011;11258;52.516;13.318;2024-03-02T06:18:43;43.60;;;22.90;;
22184;SDS011;11258;52.516;13.318;2024-03-02T06:21:09;46.67;;;24.27;;
22184;SDS011;11258;52.516;13.318;2024-03-02T06:23:35;48.70;;;25.07;;
22184;SDS011;11258;52.516;13.318;2024-03-02T06:26:01;44.33;;;23.23;;
22184;SDS011;11258;52.516;13.318;2024-03-02T06:28:27;45.07;;;21.73;;
22184;SDS011;11258;52.516;13.318;2024-03-02T06:30:54;48.37;;;24.10;;
22184;SDS011;11258;52.516;13.318;2024-03-02T06:33:20;40.80;;;21.50;;
22184;SDS011;11258;52.516;13.318;2024-03-02T06:35:46;48.97;;;25.00;;
22184;SDS011;11258;52.516;13.318;2024-03-02T06:38:12;44.47;;;23.87;;
22184;SDS011;11258;52.516;13.318;2024-03-02T06:40:38;44.23;;;22.77;;
22184;SDS011;11258;52.516;13.318;2024-03-02T06:43:05;46.43;;;23.50;;
22184;SDS011;11258;52.516;13.318;2024-03-02T06:45:31;50.37;;;24.37;;
22184;SDS011;11258;52.516;13.318;2024-03-02T06:47:59;49.30;;;23.63;;
22184;SDS011;11258;52.516;13.318;2024-03-02T06:50:25;44.43;;;22.77;;
22184;SDS011;11258;52.516;13.318;2024-03-02T06:52:51;48.20;;;24.13;;
22184;SDS011;11258;52.516;13.318;2024-03-02T06:55:18;42.03;;;23.17;;
22184;SDS011;11258;52.516;13.318;2024-03-02T06:57:44;45.10;;;22.53;;
22184;SDS011;11258;52.516;13.318;2024-03-02T07:00:10;45.50;;;22.57;;
22184;SDS011;11258;52.516;13.318;2024-03-02T07:02:36;44.53;;;22.40;;
22184;SDS011;11258;52.516;13.318;2024-03-02T07:05:02;45.00;;;22.60;;
22184;SDS011;11258;52.516;13.318;2024-03-02T07:07:29;43.33;;;23.50;;
22184;SDS011;11258;52.516;13.318;2024-03-02T07:09:55;45.43;;;23.27;;
22184;SDS011;11258;52.516;13.318;2024-03-02T07:12:21;42.70;;;22.93;;
22184;SDS011;11258;52.516;13.318;2024-03-02T07:14:47;49.40;;;23.97;;
22184;SDS011;11258;52.516;13.318;2024-03-02T07:17:28;49.63;;;23.33;;
22184;SDS011;11258;52.516;13.318;2024-03-02T07:19:54;42.90;;;22.40;;
22184;SDS011;11258;52.516;13.318;2024-03-02T07:22:20;45.90;;;22.97;;
22184;SDS011;11258;52.516;13.318;2024-03-02T07:24:46;46.83;;;24.73;;
22184;SDS011;11258;52.516;13.318;2024-03-02T07:27:13;40.83;;;23.47;;
22184;SDS011;11258;52.516;13.318;2024-03-02T07:29:39;48.27;;;22.93;;
22184;SDS011;11258;52.516;13.318;2024-03-02T07:32:06;46.93;;;24.83;;
22184;SDS011;11258;52.516;13.318;2024-03-02T07:34:32;42.53;;;23.33;;
22184;SDS011;11258;52.516;13.318;2024-03-02T07:36:58;44.23;;;23.80;;
22184;SDS011;11258;52.516;13.318;2024-03-02T07:39:24;51.30;;;23.47;;
22184;SDS011;11258;52.516;13.318;2024-03-02T07:41:50;45.30;;;22.57;;
22184;SDS011;11258;52.516;13.318;2024-03-02T07:44:16;47.97;;;23.90;;
22184;SDS011;11258;52.516;13.318;2024-03-02T07:46:44;47.80;;;24.50;;
22184;SDS011;11258;52.516;13.318;2024-03-02T07:49:11;44.43;;;22.13;;
22184;SDS011;11258;52.516;13.318;2024-03-02T07:51:38;43.03;;;23.33;;
22184;SDS011;11258;52.516;13.318;2024-03-02T07:54:04;45.87;;;24.73;;
22184;SDS011;11258;52.516;13.318;2024-03-02T07:56:30;39.60;;;22.90;;
22184;SDS011;11258;52.516;13.318;2024-03-02T07:58:57;47.73;;;22.90;;
22184;SDS011;11258;52.516;13.318;2024-03-02T08:01:26;42.63;;;22.83;;
22184;SDS011;11258;52.516;13.318;2024-03-02T08:03:52;44.67;;;23.60;;
22184;SDS011;11258;52.516;13.318;2024-03-02T08:06:20;46.73;;;23.57;;
22184;SDS011;11258;52.516;13.318;2024-03-02T08:08:47;50.27;;;25.20;;
22184;SDS011;11258;52.516;13.318;2024-03-02T08:11:13;42.73;;;23.07;;
22184;SDS011;11258;52.516;13.318;2024-03-02T08:13:39;45.67;;;22.60;;
22184;SDS011;11258;52.516;13.318;2024-03-02T08:16:05;43.37;;;23.53;;
22184;SDS011;11258;52.516;13.318;2024-03-02T08:18:34;45.20;;;22.33;;
22184;SDS011;11258;52.516;13.318;2024-03-02T08:21:03;43.67;;;22.70;;
22184;SDS011;11258;52.516;13.318;2024-03-02T08:23:29;39.43;;;21.53;;
22184;SDS011;11258;52.516;13.318;2024-03-02T08:25:55;44.13;;;22.73;;
22184;SDS011;11258;52.516;13.318;2024-03-02T08:28:22;40.30;;;20.73;;
22184;SDS011;11258;52.516;13.318;2024-03-02T08:30:48;43.60;;;22.60;;
22184;SDS011;11258;52.516;13.318;2024-03-02T08:33:14;46.20;;;23.77;;
22184;SDS011;11258;52.516;13.318;2024-03-02T08:35:40;38.03;;;19.90;;
22184;SDS011;11258;52.516;13.318;2024-03-02T08:38:06;40.80;;;20.77;;
22184;SDS011;11258;52.516;13.318;2024-03-02T08:40:32;44.53;;;21.43;;
22184;SDS011;11258;52.516;13.318;2024-03-02T08:42:58;42.30;;;21.47;;
22184;SDS011;11258;52.516;13.318;2024-03-02T08:45:24;43.23;;;21.60;;
22184;SDS011;11258;52.516;13.318;2024-03-02T08:47:50;44.67;;;22.37;;
22184;SDS011;11258;52.516;13.318;2024-03-02T08:50:16;38.40;;;21.33;;
22184;SDS011;11258;52.516;13.318;2024-03-02T08:52:42;47.20;;;22.10;;
22184;SDS011;11258;52.516;13.318;2024-03-02T08:55:08;47.77;;;23.90;;
22184;SDS011;11258;52.516;13.318;2024-03-02T08:57:36;45.87;;;22.50;;
22184;SDS011;11258;52.516;13.318;2024-03-02T09:00:02;52.10;;;24.97;;
22184;SDS011;11258;52.516;13.318;2024-03-02T09:02:30;44.13;;;23.10;;
22184;SDS011;11258;52.516;13.318;2024-03-02T09:04:56;46.37;;;21.83;;
22184;SDS011;11258;52.516;13.318;2024-03-02T09:07:22;40.83;;;22.10;;
22184;SDS011;11258;52.516;13.318;2024-03-02T09:09:48;43.43;;;23.63;;
22184;SDS011;11258;52.516;13.318;2024-03-02T09:12:15;42.53;;;23.07;;
22184;SDS011;11258;52.516;13.318;2024-03-02T09:14:41;41.17;;;20.23;;
22184;SDS011;11258;52.516;13.318;2024-03-02T09:17:07;38.90;;;21.70;;
22184;SDS011;11258;52.516;13.318;2024-03-02T09:19:35;41.33;;;21.93;;
22184;SDS011;11258;52.516;13.318;2024-03-02T09:22:01;37.07;;;19.77;;
22184;SDS011;11258;52.516;13.318;2024-03-02T09:24:30;42.40;;;21.63;;
22184;SDS011;11258;52.516;13.318;2024-03-02T09:26:56;41.90;;;21.53;;
22184;SDS011;11258;52.516;13.318;2024-03-02T09:29:22;39.93;;;20.57;;
22184;SDS011;11258;52.516;13.318;2024-03-02T09:31:48;41.80;;;21.40;;
22184;SDS011;11258;52.516;13.318;2024-03-02T09:34:16;42.03;;;20.50;;
22184;SDS011;11258;52.516;13.318;2024-03-02T09:36:42;42.60;;;21.63;;
22184;SDS011;11258;52.516;13.318;2024-03-02T09:39:08;40.70;;;21.03;;
22184;SDS011;11258;52.516;13.318;2024-03-02T09:41:35;41.83;;;21.90;;
22184;SDS011;11258;52.516;13.318;2024-03-02T09:44:01;42.80;;;22.17;;
22184;SDS011;11258;52.516;13.318;2024-03-02T09:46:28;44.73;;;21.17;;
22184;SDS011;11258;52.516;13.318;2024-03-02T09:48:54;40.60;;;21.20;;
22184;SDS011;11258;52.516;13.318;2024-03-02T09:51:20;43.83;;;20.60;;
22184;SDS011;11258;52.516;13.318;2024-03-02T09:53:46;41.87;;;21.27;;
22184;SDS011;11258;52.516;13.318;2024-03-02T09:56:13;38.10;;;21.00;;
22184;SDS011;11258;52.516;13.318;2024-03-02T09:58:41;41.80;;;20.33;;
22184;SDS011;11258;52.516;13.318;2024-03-02T10:01:08;42.47;;;20.73;;
22184;SDS011;11258;52.516;13.318;2024-03-02T10:03:37;38.23;;;19.67;;
22184;SDS011;11258;52.516;13.318;2024-03-02T10:06:23;38.73;;;19.90;;
22184;SDS011;11258;52.516;13.318;2024-03-02T10:08:49;39.30;;;20.20;;
22184;SDS011;11258;52.516;13.318;2024-03-02T10:16:50;31.50;;;17.53;;
22184;SDS011;11258;52.516;13.318;2024-03-02T10:21:42;31.30;;;16.87;;
22184;SDS011;11258;52.516;13.318;2024-03-02T10:24:08;35.33;;;16.43;;
22184;SDS011;11258;52.516;13.318;2024-03-02T10:26:34;31.37;;;16.73;;
22184;SDS011;11258;52.516;13.318;2024-03-02T10:29:00;27.37;;;16.10;;
22184;SDS011;11258;52.516;13.318;2024-03-02T10:31:27;27.40;;;16.37;;
22184;SDS011;11258;52.516;13.318;2024-03-02T10:33:59;30.97;;;16.47;;
22184;SDS011;11258;52.516;13.318;2024-03-02T10:36:27;30.67;;;16.23;;
22184;SDS011;11258;52.516;13.318;2024-03-02T10:38:53;29.23;;;16.67;;
22184;SDS011;11258;52.516;13.318;2024-03-02T10:41:23;28.67;;;15.37;;
22184;SDS011;11258;52.516;13.318;2024-03-02T10:43:53;24.87;;;14.33;;
22184;SDS011;11258;52.516;13.318;2024-03-02T10:46:24;31.10;;;15.87;;
22184;SDS011;11258;52.516;13.318;2024-03-02T10:48:54;27.90;;;15.50;;
22184;SDS011;11258;52.516;13.318;2024-03-02T10:51:20;28.93;;;14.67;;
22184;SDS011;11258;52.516;13.318;2024-03-02T10:53:46;31.17;;;16.10;;
22184;SDS011;11258;52.516;13.318;2024-03-02T10:56:14;32.63;;;16.27;;
22184;SDS011;11258;52.516;13.318;2024-03-02T10:58:40;25.70;;;14.97;;
22184;SDS011;11258;52.516;13.318;2024-03-02T11:01:06;26.93;;;15.23;;
22184;SDS011;11258;52.516;13.318;2024-03-02T11:03:33;25.63;;;14.17;;
22184;SDS011;11258;52.516;13.318;2024-03-02T11:06:02;29.07;;;14.30;;
22184;SDS011;11258;52.516;13.318;2024-03-02T11:08:31;24.10;;;13.27;;
22184;SDS011;11258;52.516;13.318;2024-03-02T11:10:58;24.70;;;13.87;;
22184;SDS011;11258;52.516;13.318;2024-03-02T11:13:27;25.50;;;12.73;;
22184;SDS011;11258;52.516;13.318;2024-03-02T11:15:55;27.83;;;13.90;;
22184;SDS011;11258;52.516;13.318;2024-03-02T11:18:21;23.20;;;13.60;;
22184;SDS011;11258;52.516;13.318;2024-03-02T11:20:47;25.87;;;14.17;;
22184;SDS011;11258;52.516;13.318;2024-03-02T11:23:14;23.67;;;14.03;;
22184;SDS011;11258;52.516;13.318;2024-03-02T11:25:40;25.77;;;13.27;;
22184;SDS011;11258;52.516;13.318;2024-03-02T11:28:07;27.25;;;12.88;;
22184;SDS011;11258;52.516;13.318;2024-03-02T11:33:07;24.40;;;13.23;;
22184;SDS011;11258;52.516;13.318;2024-03-02T11:35:36;23.25;;;13.00;;
22184;SDS011;11258;52.516;13.318;2024-03-02T11:38:03;23.88;;;13.20;;
22184;SDS011;11258;52.516;13.318;2024-03-02T11:40:29;23.55;;;12.45;;
22184;SDS011;11258;52.516;13.318;2024-03-02T11:42:56;25.83;;;12.95;;
22184;SDS011;11258;52.516;13.318;2024-03-02T11:45:23;23.33;;;11.82;;
22184;SDS011;11258;52.516;13.318;2024-03-02T11:47:55;20.25;;;11.88;;
22184;SDS011;11258;52.516;13.318;2024-03-02T11:50:33;24.63;;;13.07;;
22184;SDS011;11258;52.516;13.318;2024-03-02T11:53:00;24.52;;;12.38;;
22184;SDS011;11258;52.516;13.318;2024-03-02T11:55:26;21.45;;;12.90;;
22184;SDS011;11258;52.516;13.318;2024-03-02T11:57:52;26.95;;;12.45;;
22184;SDS011;11258;52.516;13.318;2024-03-02T12:00:19;23.02;;;12.90;;
22184;SDS011;11258;52.516;13.318;2024-03-02T12:02:59;23.73;;;13.00;;
22184;SDS011;11258;52.516;13.318;2024-03-02T12:05:26;26.33;;;13.40;;
22184;SDS011;11258;52.516;13.318;2024-03-02T12:07:58;25.35;;;13.63;;
22184;SDS011;11258;52.516;13.318;2024-03-02T12:10:25;24.38;;;13.25;;
22184;SDS011;11258;52.516;13.318;2024-03-02T12:12:57;24.55;;;13.40;;
22184;SDS011;11258;52.516;13.318;2024-03-02T12:15:27;24.67;;;13.07;;
22184;SDS011;11258;52.516;13.318;2024-03-02T12:17:54;24.80;;;13.95;;
22184;SDS011;11258;52.516;13.318;2024-03-02T12:20:21;28.77;;;15.00;;
22184;SDS011;11258;52.516;13.318;2024-03-02T12:22:48;25.10;;;13.98;;
22184;SDS011;11258;52.516;13.318;2024-03-02T12:25:14;25.30;;;14.23;;
22184;SDS011;11258;52.516;13.318;2024-03-02T12:27:41;31.73;;;13.93;;
22184;SDS011;11258;52.516;13.318;2024-03-02T12:30:07;29.10;;;14.80;;
22184;SDS011;11258;52.516;13.318;2024-03-02T12:32:38;25.25;;;14.95;;
22184;SDS011;11258;52.516;13.318;2024-03-02T12:35:04;29.88;;;14.77;;
22184;SDS011;11258;52.516;13.318;2024-03-02T12:37:30;25.88;;;13.93;;
22184;SDS011;11258;52.516;13.318;2024-03-02T12:39:56;28.92;;;15.23;;
22184;SDS011;11258;52.516;13.318;2024-03-02T12:42:23;25.65;;;13.68;;
22184;SDS011;11258;52.516;13.318;2024-03-02T12:44:53;23.58;;;13.65;;
22184;SDS011;11258;52.516;13.318;2024-03-02T12:47:21;28.25;;;15.13;;
22184;SDS011;11258;52.516;13.318;2024-03-02T12:49:48;28.63;;;15.32;;
22184;SDS011;11258;52.516;13.318;2024-03-02T12:52:15;26.40;;;14.95;;
22184;SDS011;11258;52.516;13.318;2024-03-02T12:54:43;30.25;;;15.68;;
22184;SDS011;11258;52.516;13.318;2024-03-02T12:57:09;28.92;;;15.05;;
22184;SDS011;11258;52.516;13.318;2024-03-02T12:59:35;30.20;;;15.27;;
22184;SDS011;11258;52.516;13.318;2024-03-02T13:02:02;23.75;;;14.23;;
22184;SDS011;11258;52.516;13.318;2024-03-02T13:04:28;29.25;;;15.43;;
22184;SDS011;11258;52.516;13.318;2024-03-02T13:06:56;29.38;;;16.30;;
22184;SDS011;11258;52.516;13.318;2024-03-02T13:09:22;27.50;;;15.52;;
22184;SDS011;11258;52.516;13.318;2024-03-02T13:11:49;26.75;;;13.93;;
22184;SDS011;11258;52.516;13.318;2024-03-02T13:14:15;31.75;;;17.20;;
22184;SDS011;11258;52.516;13.318;2024-03-02T13:16:41;26.02;;;14.80;;
22184;SDS011;11258;52.516;13.318;2024-03-02T13:19:08;28.40;;;14.13;;
22184;SDS011;11258;52.516;13.318;2024-03-02T13:21:34;28.42;;;14.65;;
22184;SDS011;11258;52.516;13.318;2024-03-02T13:24:00;24.42;;;14.43;;
22184;SDS011;11258;52.516;13.318;2024-03-02T13:26:26;26.88;;;15.48;;
22184;SDS011;11258;52.516;13.318;2024-03-02T13:28:52;28.67;;;15.45;;
22184;SDS011;11258;52.516;13.318;2024-03-02T13:31:18;22.42;;;12.90;;
22184;SDS011;11258;52.516;13.318;2024-03-02T13:33:45;23.85;;;13.75;;
22184;SDS011;11258;52.516;13.318;2024-03-02T13:36:11;23.30;;;13.57;;
22184;SDS011;11258;52.516;13.318;2024-03-02T13:38:38;22.40;;;12.18;;
22184;SDS011;11258;52.516;13.318;2024-03-02T13:41:04;48.30;;;26.13;;
22184;SDS011;11258;52.516;13.318;2024-03-02T13:43:30;48.83;;;23.92;;
22184;SDS011;11258;52.516;13.318;2024-03-02T13:46:00;28.60;;;14.05;;
22184;SDS011;11258;52.516;13.318;2024-03-02T13:48:26;21.63;;;12.50;;
22184;SDS011;11258;52.516;13.318;2024-03-02T13:50:52;27.23;;;15.18;;
22184;SDS011;11258;52.516;13.318;2024-03-02T13:53:18;27.63;;;14.23;;
22184;SDS011;11258;52.516;13.318;2024-03-02T13:55:44;25.70;;;14.05;;
22184;SDS011;11258;52.516;13.318;2024-03-02T13:58:10;23.67;;;13.25;;
22184;SDS011;11258;52.516;13.318;2024-03-02T14:00:37;21.98;;;12.35;;
22184;SDS011;11258;52.516;13.318;2024-03-02T14:03:06;24.33;;;13.48;;
22184;SDS011;11258;52.516;13.318;2024-03-02T14:05:32;24.70;;;13.10;;
22184;SDS011;11258;52.516;13.318;2024-03-02T14:07:58;26.67;;;12.40;;
22184;SDS011;11258;52.516;13.318;2024-03-02T14:10:28;25.20;;;13.40;;
22184;SDS011;11258;52.516;13.318;2024-03-02T14:12:54;20.17;;;12.52;;
22184;SDS011;11258;52.516;13.318;2024-03-02T14:15:21;22.25;;;11.50;;
22184;SDS011;11258;52.516;13.318;2024-03-02T14:17:47;19.38;;;11.50;;